createdAt,value
2018-04-27T00:02:20.959Z,99491.27
2018-04-27T00:04:48.541Z,99487.52
2018-04-27T00:07:16.065Z,99488.41
2018-04-27T00:09:43.642Z,99480.36
2018-04-27T00:12:11.219Z,99475.30
2018-04-27T00:14:38.755Z,99470.55
2018-04-27T00:17:06.322Z,99468.74
2018-04-27T00:19:33.875Z,99464.79
2018-04-27T00:22:01.426Z,99460.95
2018-04-27T00:24:28.952Z,99465.27
2018-04-27T00:26:56.556Z,99454.39
2018-04-27T00:29:24.114Z,99454.86
2018-04-27T00:31:51.655Z,99457.55
2018-04-27T00:34:19.193Z,99444.79
2018-04-27T00:36:46.893Z,99443.31
2018-04-27T00:39:14.416Z,99434.79
2018-04-27T00:41:41.942Z,99434.95
2018-04-27T00:44:09.497Z,99436.96
2018-04-27T00:46:37.029Z,99427.38
2018-04-27T00:49:05.475Z,99422.81
2018-04-27T00:51:33.079Z,99411.59
2018-04-27T00:54:00.657Z,99426.90
2018-04-27T00:56:28.182Z,99418.48
2018-04-27T00:58:55.735Z,99415.20
2018-04-27T01:01:23.265Z,99417.83
2018-04-27T01:03:50.813Z,99416.34
2018-04-27T01:06:18.337Z,99418.50
2018-04-27T01:08:45.995Z,99412.59
2018-04-27T01:11:13.518Z,99415.59
2018-04-27T01:13:41.046Z,99409.52
2018-04-27T01:16:08.601Z,99411.64
2018-04-27T01:18:36.130Z,99404.92
2018-04-27T01:21:03.782Z,99407.27
2018-04-27T01:23:31.455Z,99410.88
2018-04-27T01:25:59.006Z,99405.45
2018-04-27T01:28:26.563Z,99397.96
2018-04-27T01:30:54.121Z,99399.57
2018-04-27T01:33:21.683Z,99400.27
2018-04-27T01:35:49.243Z,99401.38
2018-04-27T01:38:16.750Z,99400.78
2018-04-27T01:40:44.301Z,99407.73
2018-04-27T01:43:11.854Z,99408.17
2018-04-27T01:45:39.480Z,99405.87
2018-04-27T01:48:07.008Z,99406.20
2018-04-27T01:50:35.586Z,99409.92
2018-04-27T01:53:03.185Z,99412.37
2018-04-27T01:55:30.833Z,99410.27
2018-04-27T01:57:58.403Z,99409.09
2018-04-27T02:00:25.991Z,99411.52
2018-04-27T02:02:53.624Z,99407.81
2018-04-27T02:05:21.192Z,99404.88
2018-04-27T02:07:48.850Z,99402.03
2018-04-27T02:10:16.374Z,99395.55
2018-04-27T02:12:43.930Z,99399.52
2018-04-27T02:15:11.492Z,99398.68
2018-04-27T02:17:39.083Z,99396.16
2018-04-27T02:20:06.613Z,99383.87
2018-04-27T02:22:34.159Z,99379.66
2018-04-27T02:25:01.769Z,99365.83
2018-04-27T02:27:29.322Z,99363.66
2018-04-27T02:29:56.871Z,99361.30
2018-04-27T02:32:24.447Z,99359.58
2018-04-27T02:34:51.974Z,99360.40
2018-04-27T02:37:19.501Z,99354.19
2018-04-27T02:39:47.049Z,99354.82
2018-04-27T02:42:14.581Z,99347.00
2018-04-27T02:44:42.129Z,99338.18
2018-04-27T02:47:09.650Z,99340.20
2018-04-27T02:49:37.214Z,99339.50
2018-04-27T02:52:04.735Z,99343.83
2018-04-27T02:54:32.373Z,99338.97
2018-04-27T02:56:59.892Z,99333.33
2018-04-27T02:59:27.505Z,99331.08
2018-04-27T03:01:55.047Z,99328.06
2018-04-27T03:04:22.600Z,99321.73
2018-04-27T03:06:50.127Z,99309.36
2018-04-27T03:09:17.715Z,99302.08
2018-04-27T03:11:45.289Z,99301.97
2018-04-27T03:14:12.850Z,99310.74
2018-04-27T03:16:40.410Z,99305.84
2018-04-27T03:19:07.937Z,99306.05
2018-04-27T03:21:36.344Z,99312.48
2018-04-27T03:24:04.015Z,99302.97
2018-04-27T03:26:31.571Z,99305.16
2018-04-27T03:28:59.425Z,99294.50
2018-04-27T03:31:26.970Z,99292.14
2018-04-27T03:33:54.495Z,99283.99
2018-04-27T03:36:22.053Z,99282.19
2018-04-27T03:38:49.681Z,99295.10
2018-04-27T03:41:17.261Z,99277.99
2018-04-27T03:43:44.891Z,99280.36
2018-04-27T03:46:12.490Z,99279.91
2018-04-27T03:48:40.118Z,99282.38
2018-04-27T03:51:07.671Z,99278.01
2018-04-27T03:53:35.244Z,99272.83
2018-04-27T03:56:02.751Z,99265.52
2018-04-27T03:58:30.349Z,99265.75
2018-04-27T04:01:09.757Z,99250.42
2018-04-27T04:03:49.033Z,99235.77
2018-04-27T04:06:19.505Z,99227.11
2018-04-27T04:08:47.316Z,99220.56
2018-04-27T04:11:14.874Z,99223.76
2018-04-27T04:13:42.629Z,99222.09
2018-04-27T04:16:10.091Z,99234.53
2018-04-27T04:18:37.661Z,99222.81
2018-04-27T04:21:05.319Z,99223.39
2018-04-27T04:23:32.871Z,99219.38
2018-04-27T04:26:00.423Z,99220.08
2018-04-27T04:28:28.096Z,99207.38
2018-04-27T04:30:55.623Z,99213.75
2018-04-27T04:33:23.185Z,99208.89
2018-04-27T04:35:50.707Z,99216.13
2018-04-27T04:38:18.331Z,99213.63
2018-04-27T04:40:45.836Z,99218.25
2018-04-27T04:43:13.588Z,99217.06
2018-04-27T04:45:41.747Z,99207.77
2018-04-27T04:48:09.988Z,99209.36
2018-04-27T04:50:37.544Z,99203.98
2018-04-27T04:53:05.073Z,99193.16
2018-04-27T04:55:32.652Z,99198.37
2018-04-27T04:58:00.251Z,99195.23
2018-04-27T05:00:27.805Z,99194.26
2018-04-27T05:02:55.416Z,99191.97
2018-04-27T05:05:24.422Z,99191.32
2018-04-27T05:07:52.119Z,99187.00
2018-04-27T05:10:20.914Z,99182.66
2018-04-27T05:12:48.465Z,99183.50
2018-04-27T05:15:23.486Z,99186.57
2018-04-27T05:17:52.839Z,99178.16
2018-04-27T05:20:19.845Z,99184.72
2018-04-27T05:22:47.694Z,99179.42
2018-04-27T05:25:15.276Z,99176.11
2018-04-27T05:27:42.830Z,99175.86
2018-04-27T05:30:10.359Z,99172.71
2018-04-27T05:32:39.429Z,99173.42
2018-04-27T05:35:07.311Z,99165.42
2018-04-27T05:37:35.253Z,99163.54
2018-04-27T05:40:03.119Z,99167.73
2018-04-27T05:42:34.886Z,99156.86
2018-04-27T05:45:02.792Z,99149.38
2018-04-27T05:47:30.346Z,99165.91
2018-04-27T05:49:58.042Z,99150.95
2018-04-27T05:52:25.601Z,99148.34
2018-04-27T05:54:53.127Z,99148.62
2018-04-27T05:57:20.680Z,99149.29
2018-04-27T05:59:48.233Z,99140.80
2018-04-27T06:02:15.786Z,99144.02
2018-04-27T06:04:43.437Z,99138.53
2018-04-27T06:07:10.934Z,99138.75
2018-04-27T06:09:38.490Z,99132.83
2018-04-27T06:12:06.018Z,99137.47
2018-04-27T06:14:33.630Z,99135.28
2018-04-27T06:17:01.173Z,99129.03
2018-04-27T06:19:28.852Z,99128.17
2018-04-27T06:21:56.372Z,99133.03
2018-04-27T06:24:23.902Z,99122.36
2018-04-27T06:26:51.506Z,99117.95
2018-04-27T06:29:19.033Z,99113.52
2018-04-27T06:31:46.641Z,99112.98
2018-04-27T06:34:14.187Z,99112.23
2018-04-27T06:36:41.737Z,99101.80
2018-04-27T06:39:09.339Z,99104.64
2018-04-27T06:41:37.544Z,99103.19
2018-04-27T06:44:05.161Z,99096.88
2018-04-27T06:46:36.048Z,99091.35
2018-04-27T06:49:03.818Z,99098.41
2018-04-27T06:51:31.421Z,99094.56
2018-04-27T06:53:59.008Z,99089.23
2018-04-27T06:56:26.563Z,99084.97
2018-04-27T06:58:54.159Z,99083.88
2018-04-27T07:01:21.717Z,99087.39
2018-04-27T07:03:49.337Z,99080.91
2018-04-27T07:06:16.879Z,99071.37
2018-04-27T07:08:44.474Z,99065.94
2018-04-27T07:11:11.995Z,99064.86
2018-04-27T07:13:39.545Z,99062.83
2018-04-27T07:16:07.074Z,99065.02
2018-04-27T07:18:34.628Z,99055.58
2018-04-27T07:21:02.148Z,99050.61
2018-04-27T07:23:29.750Z,99053.05
2018-04-27T07:25:57.296Z,99051.36
2018-04-27T07:28:24.838Z,99046.05
2018-04-27T07:30:52.412Z,99042.91
2018-04-27T07:33:19.943Z,99032.81
2018-04-27T07:35:47.498Z,99032.30
2018-04-27T07:38:15.050Z,99028.62
2018-04-27T07:40:42.602Z,99028.95
2018-04-27T07:43:10.148Z,99018.23
2018-04-27T07:45:37.703Z,99017.58
2018-04-27T07:48:05.228Z,99009.15
2018-04-27T07:50:32.829Z,99005.69
2018-04-27T07:53:00.390Z,99003.72
2018-04-27T07:55:27.933Z,98987.31
2018-04-27T07:57:55.486Z,98989.46
2018-04-27T08:00:23.066Z,98986.09
2018-04-27T08:02:50.665Z,98987.52
2018-04-27T08:05:18.217Z,98986.20
2018-04-27T08:07:45.804Z,98981.42
2018-04-27T08:10:13.360Z,98984.64
2018-04-27T08:12:41.027Z,98985.34
2018-04-27T08:15:13.204Z,98981.93
2018-04-27T08:17:44.802Z,98983.91
2018-04-27T08:20:18.491Z,98984.43
2018-04-27T08:22:47.767Z,98987.11
2018-04-27T08:25:17.114Z,98987.27
2018-04-27T08:27:45.915Z,98984.77
2018-04-27T08:30:17.650Z,98978.22
2018-04-27T08:32:46.320Z,98969.12
2018-04-27T08:35:15.949Z,98972.81
2018-04-27T08:37:47.547Z,98971.28
2018-04-27T08:40:15.801Z,98967.44
2018-04-27T08:42:46.677Z,98966.00
2018-04-27T08:45:16.958Z,98959.69
2018-04-27T08:47:44.812Z,98953.84
2018-04-27T08:50:14.987Z,98945.54
2018-04-27T08:52:44.946Z,98949.72
2018-04-27T08:55:14.065Z,98951.09
2018-04-27T08:57:44.418Z,98946.56
2018-04-27T09:00:12.230Z,98952.86
2018-04-27T09:02:40.751Z,98948.58
2018-04-27T09:05:08.525Z,98927.84
2018-04-27T09:07:37.407Z,98924.05
2018-04-27T09:10:07.083Z,98922.43
2018-04-27T09:12:37.798Z,98911.88
2018-04-27T09:15:07.313Z,98913.56
2018-04-27T09:17:37.032Z,98916.88
2018-04-27T09:20:07.037Z,98912.29
2018-04-27T09:22:36.093Z,98907.86
2018-04-27T09:25:07.747Z,98905.02
2018-04-27T09:27:36.997Z,98908.07
2018-04-27T09:30:06.703Z,98906.79
2018-04-27T09:32:36.601Z,98892.58
2018-04-27T09:35:06.932Z,98881.94
2018-04-27T09:37:34.509Z,98863.82
2018-04-27T09:40:02.027Z,98872.27
2018-04-27T09:42:29.664Z,98880.89
2018-04-27T09:44:58.367Z,98881.59
2018-04-27T09:47:26.116Z,98886.34
2018-04-27T09:49:53.668Z,98868.86
2018-04-27T09:52:21.220Z,98863.16
2018-04-27T09:54:48.750Z,98854.27
2018-04-27T09:57:16.350Z,98850.86
2018-04-27T09:59:43.945Z,98847.44
2018-04-27T10:02:11.527Z,98839.50
2018-04-27T10:04:39.048Z,98836.34
2018-04-27T10:07:06.633Z,98832.92
2018-04-27T10:09:34.300Z,98832.78
2018-04-27T10:12:01.889Z,98832.50
2018-04-27T10:14:30.762Z,98828.69
2018-04-27T10:16:58.308Z,98824.45
2018-04-27T10:19:25.923Z,98827.91
2018-04-27T10:21:53.695Z,98818.30
2018-04-27T10:24:21.249Z,98812.76
2018-04-27T10:26:48.794Z,98804.86
2018-04-27T10:29:16.356Z,98807.81
2018-04-27T10:31:43.875Z,98799.03
2018-04-27T10:34:11.458Z,98792.91
2018-04-27T10:36:39.027Z,98798.66
2018-04-27T10:39:06.611Z,98798.97
2018-04-27T10:41:34.413Z,98787.11
2018-04-27T10:44:02.065Z,98782.41
2018-04-27T10:46:29.619Z,98777.94
2018-04-27T10:48:57.145Z,98774.25
2018-04-27T10:51:24.721Z,98770.16
2018-04-27T10:53:52.271Z,98754.89
2018-04-27T10:56:20.177Z,98751.21
2018-04-27T10:58:47.772Z,98754.09
2018-04-27T11:01:15.402Z,98759.04
2018-04-27T11:03:42.958Z,98758.86
2018-04-27T11:06:11.485Z,98752.73
2018-04-27T11:08:41.688Z,98734.19
2018-04-27T11:11:09.840Z,98733.89
2018-04-27T11:13:37.543Z,98725.20
2018-04-27T11:16:05.797Z,98719.27
2018-04-27T11:18:33.998Z,98725.84
2018-04-27T11:21:02.097Z,98723.22
2018-04-27T11:23:30.410Z,98716.70
2018-04-27T11:25:58.804Z,98714.19
2018-04-27T11:28:27.002Z,98701.88
2018-04-27T11:30:55.611Z,98691.27
2018-04-27T11:33:24.003Z,98694.53
2018-04-27T11:35:51.713Z,98685.51
2018-04-27T11:38:25.079Z,98692.16
2018-04-27T11:40:53.039Z,98689.66
2018-04-27T11:43:21.136Z,98682.42
2018-04-27T11:45:50.905Z,98670.23
2018-04-27T11:48:22.145Z,98651.59
2018-04-27T11:50:50.100Z,98639.03
2018-04-27T11:53:18.835Z,98634.31
2018-04-27T11:55:48.251Z,98630.42
2018-04-27T11:58:17.643Z,98635.28
2018-04-27T12:00:51.208Z,98647.33
2018-04-27T12:03:19.196Z,98629.53
2018-04-27T12:05:48.296Z,98623.45
2018-04-27T12:08:16.189Z,98604.77
2018-04-27T12:10:46.377Z,98608.84
2018-04-27T12:13:15.093Z,98607.67
2018-04-27T12:15:42.731Z,98598.56
2018-04-27T12:18:10.352Z,98595.98
2018-04-27T12:20:37.904Z,98595.67
2018-04-27T12:23:05.458Z,98588.78
2018-04-27T12:25:33.072Z,98599.33
2018-04-27T12:28:00.763Z,98615.77
2018-04-27T12:30:28.287Z,98621.51
2018-04-27T12:32:55.847Z,98626.56
2018-04-27T12:35:23.421Z,98600.80
2018-04-27T12:37:51.015Z,98617.92
2018-04-27T12:40:18.632Z,98603.66
2018-04-27T12:42:46.224Z,98594.88
2018-04-27T12:45:13.955Z,98584.78
2018-04-27T12:47:41.598Z,98588.46
2018-04-27T12:50:09.182Z,98573.04
2018-04-27T12:52:36.706Z,98562.89
2018-04-27T12:55:04.295Z,98556.04
2018-04-27T12:57:31.887Z,98553.31
2018-04-27T12:59:59.439Z,98554.20
2018-04-27T13:02:26.971Z,98550.92
2018-04-27T13:04:57.114Z,98552.89
2018-04-27T13:07:24.654Z,98541.20
2018-04-27T13:09:52.206Z,98536.20
2018-04-27T13:12:19.804Z,98526.71
2018-04-27T13:14:47.957Z,98528.70
2018-04-27T13:17:15.855Z,98540.28
2018-04-27T13:19:43.910Z,98536.94
2018-04-27T13:22:12.010Z,98543.50
2018-04-27T13:24:44.364Z,98530.16
2018-04-27T13:27:13.317Z,98531.94
2018-04-27T13:29:40.890Z,98529.41
2018-04-27T13:32:08.436Z,98542.52
2018-04-27T13:34:35.973Z,98543.81
2018-04-27T13:37:04.823Z,98533.98
2018-04-27T13:39:32.478Z,98544.77
2018-04-27T13:42:00.028Z,98526.50
2018-04-27T13:44:27.575Z,98525.53
2018-04-27T13:46:55.182Z,98520.41
2018-04-27T13:49:22.787Z,98515.91
2018-04-27T13:51:50.406Z,98522.77
2018-04-27T13:54:18.733Z,98520.34
2018-04-27T13:56:46.346Z,98517.14
2018-04-27T13:59:13.945Z,98513.30
2018-04-27T14:01:41.546Z,98504.23
2018-04-27T14:04:09.066Z,98506.75
2018-04-27T14:06:40.716Z,98506.83
2018-04-27T14:09:10.384Z,98497.48
2018-04-27T14:11:38.264Z,98494.66
2018-04-27T14:14:06.243Z,98497.55
2018-04-27T14:16:34.163Z,98502.92
2018-04-27T14:19:04.569Z,98492.82
2018-04-27T14:21:33.232Z,98500.46
2018-04-27T14:24:01.167Z,98484.43
2018-04-27T14:26:28.770Z,98477.94
2018-04-27T14:28:56.326Z,98491.03
2018-04-27T14:31:23.991Z,98486.06
2018-04-27T14:33:51.587Z,98482.73
2018-04-27T14:36:19.132Z,98481.23
2018-04-27T14:38:46.682Z,98477.13
2018-04-27T14:41:14.206Z,98467.20
2018-04-27T14:43:41.753Z,98463.48
2018-04-27T14:46:09.286Z,98458.16
2018-04-27T14:48:36.868Z,98453.64
2018-04-27T14:51:04.416Z,98460.05
2018-04-27T14:53:31.965Z,98448.52
2018-04-27T14:55:59.519Z,98452.75
2018-04-27T14:58:27.149Z,98454.75
2018-04-27T15:00:54.807Z,98452.67
2018-04-27T15:03:22.426Z,98444.06
2018-04-27T15:05:49.953Z,98444.88
2018-04-27T15:08:17.529Z,98446.66
2018-04-27T15:10:45.086Z,98447.55
2018-04-27T15:13:12.659Z,98438.83
2018-04-27T15:15:40.186Z,98441.58
2018-04-27T15:18:07.742Z,98444.81
2018-04-27T15:20:35.266Z,98449.67
2018-04-27T15:23:02.838Z,98446.58
2018-04-27T15:25:30.372Z,98446.03
2018-04-27T15:27:57.924Z,98443.44
2018-04-27T15:30:25.530Z,98447.36
2018-04-27T15:32:53.081Z,98439.24
2018-04-27T15:35:20.634Z,98447.06
2018-04-27T15:37:49.077Z,98447.55
2018-04-27T15:40:16.734Z,98446.55
2018-04-27T15:42:44.291Z,98446.00
2018-04-27T15:45:11.939Z,98440.88
2018-04-27T15:47:39.561Z,98440.64
2018-04-27T15:50:07.176Z,98442.73
2018-04-27T15:52:34.778Z,98442.48
2018-04-27T15:55:02.327Z,98439.67
2018-04-27T15:57:29.916Z,98438.29
2018-04-27T15:59:57.558Z,98439.36
2018-04-27T16:02:25.077Z,98431.19
2018-04-27T16:04:52.979Z,98439.53
2018-04-27T16:07:20.534Z,98433.71
2018-04-27T16:09:48.214Z,98440.98
2018-04-27T16:12:15.765Z,98441.97
2018-04-27T16:14:43.427Z,98438.00
2018-04-27T16:17:11.020Z,98439.36
2018-04-27T16:19:38.647Z,98447.11
2018-04-27T16:22:06.217Z,98454.86
2018-04-27T16:24:34.650Z,98452.34
2018-04-27T16:27:02.178Z,98442.25
2018-04-27T16:31:56.602Z,98460.14
2018-04-27T16:34:24.187Z,98451.47
2018-04-27T16:36:53.488Z,98450.51
2018-04-27T16:39:22.863Z,98450.09
2018-04-27T16:41:55.734Z,98448.22
2018-04-27T16:44:27.092Z,98439.77
2018-04-27T16:46:58.881Z,98442.84
2018-04-27T16:49:30.800Z,98442.70
2018-04-27T16:52:01.044Z,98452.91
2018-04-27T16:54:30.652Z,98442.68
2018-04-27T16:57:00.289Z,98446.80
2018-04-27T16:59:28.371Z,98445.13
2018-04-27T17:01:56.970Z,98443.98
2018-04-27T17:04:30.663Z,98438.08
2018-04-27T17:07:00.338Z,98447.92
2018-04-27T17:09:32.740Z,98448.50
2018-04-27T17:12:00.606Z,98453.61
2018-04-27T17:14:32.091Z,98457.85
2018-04-27T17:17:00.435Z,98459.30
2018-04-27T17:19:28.578Z,98463.22
2018-04-27T17:21:56.290Z,98460.63
2018-04-27T17:24:24.402Z,98471.11
2018-04-27T17:26:52.002Z,98465.17
2018-04-27T17:29:20.084Z,98461.71
2018-04-27T17:31:47.940Z,98461.77
2018-04-27T17:34:17.086Z,98468.36
2018-04-27T17:36:45.163Z,98464.88
2018-04-27T17:39:16.202Z,98470.41
2018-04-27T17:41:44.146Z,98475.53
2018-04-27T17:44:11.696Z,98469.81
2018-04-27T17:46:39.726Z,98476.39
2018-04-27T17:49:08.951Z,98478.39
2018-04-27T17:51:38.554Z,98481.23
2018-04-27T17:54:08.406Z,98480.37
2018-04-27T17:56:39.682Z,98482.61
2018-04-27T17:59:08.406Z,98485.44
2018-04-27T18:01:39.982Z,98486.23
2018-04-27T18:04:08.131Z,98493.28
2018-04-27T18:06:41.569Z,98496.98
2018-04-27T18:09:09.119Z,98488.73
2018-04-27T18:11:36.757Z,98500.94
2018-04-27T18:14:04.304Z,98497.94
2018-04-27T18:16:31.878Z,98497.80
2018-04-27T18:18:59.435Z,98504.33
2018-04-27T18:21:27.085Z,98508.11
2018-04-27T18:23:54.609Z,98508.20
2018-04-27T18:26:22.186Z,98509.38
2018-04-27T18:28:49.757Z,98507.77
2018-04-27T18:31:17.314Z,98517.97
2018-04-27T18:33:46.857Z,98525.83
2018-04-27T18:36:14.569Z,98531.72
2018-04-27T18:38:42.150Z,98538.91
2018-04-27T18:41:09.699Z,98538.59
2018-04-27T18:43:37.232Z,98543.67
2018-04-27T18:46:04.834Z,98549.78
2018-04-27T18:48:33.007Z,98560.94
2018-04-27T18:51:00.635Z,98555.62
2018-04-27T18:53:29.724Z,98563.73
2018-04-27T18:55:57.312Z,98560.75
2018-04-27T18:58:24.845Z,98567.34
2018-04-27T19:00:52.419Z,98570.83
2018-04-27T19:03:20.850Z,98562.75
2018-04-27T19:05:48.646Z,98576.06
2018-04-27T19:08:16.238Z,98569.77
2018-04-27T19:10:45.451Z,98576.34
2018-04-27T19:13:13.029Z,98576.82
2018-04-27T19:15:41.981Z,98588.73
2018-04-27T19:18:09.859Z,98593.38
2018-04-27T19:20:37.387Z,98593.86
2018-04-27T19:23:07.943Z,98602.62
2018-04-27T19:25:48.918Z,98604.92
2018-04-27T19:28:16.494Z,98614.63
2018-04-27T19:30:44.969Z,98612.28
2018-04-27T19:33:12.576Z,98623.23
2018-04-27T19:35:40.151Z,98625.67
2018-04-27T19:38:08.051Z,98631.80
2018-04-27T19:40:37.759Z,98630.26
2018-04-27T19:43:05.756Z,98623.82
2018-04-27T19:45:33.329Z,98637.06
2018-04-27T19:48:00.963Z,98645.66
2018-04-27T19:50:29.311Z,98644.68
2018-04-27T19:52:56.863Z,98638.78
2018-04-27T19:55:24.442Z,98633.66
2018-04-27T19:57:55.893Z,98643.32
2018-04-27T20:00:30.302Z,98652.48
2018-04-27T20:03:00.481Z,98647.09
2018-04-27T20:05:31.523Z,98657.98
2018-04-27T20:08:00.952Z,98652.03
2018-04-27T20:10:33.534Z,98655.09
2018-04-27T20:13:01.011Z,98656.17
2018-04-27T20:15:36.559Z,98657.94
2018-04-27T20:18:16.927Z,98659.80
2018-04-27T20:20:44.592Z,98663.70
2018-04-27T20:23:13.965Z,98667.09
2018-04-27T20:25:42.200Z,98668.77
2018-04-27T20:28:10.565Z,98676.64
2018-04-27T20:30:38.122Z,98680.05
2018-04-27T20:33:06.446Z,98670.54
2018-04-27T20:35:34.033Z,98676.94
2018-04-27T20:38:03.908Z,98683.23
2018-04-27T20:40:31.426Z,98676.09
2018-04-27T20:43:11.531Z,98677.77
2018-04-27T20:45:39.119Z,98689.03
2018-04-27T20:48:19.595Z,98689.04
2018-04-27T20:50:50.091Z,98692.17
2018-04-27T20:53:17.675Z,98699.84
2018-04-27T20:55:45.246Z,98694.43
2018-04-27T20:58:12.888Z,98696.79
2018-04-27T21:00:45.001Z,98702.92
2018-04-27T21:03:12.730Z,98699.23
2018-04-27T21:05:40.257Z,98704.66
2018-04-27T21:08:07.835Z,98707.66
2018-04-27T21:10:37.832Z,98705.84
2018-04-27T21:13:05.635Z,98706.42
2018-04-27T21:15:33.490Z,98717.60
2018-04-27T21:18:01.290Z,98707.30
2018-04-27T21:20:29.197Z,98708.77
2018-04-27T21:22:58.145Z,98712.27
2018-04-27T21:25:31.866Z,98707.30
2018-04-27T21:28:01.419Z,98708.43
2018-04-27T21:30:34.521Z,98716.28
2018-04-27T21:33:06.256Z,98717.20
2018-04-27T21:35:42.148Z,98706.06
2018-04-27T21:38:21.304Z,98719.70
2018-04-27T21:40:49.636Z,98713.02
2018-04-27T21:43:19.332Z,98722.78
2018-04-27T21:45:48.467Z,98717.95
2018-04-27T21:48:16.412Z,98727.17
2018-04-27T21:50:45.498Z,98724.25
2018-04-27T21:53:13.275Z,98721.27
2018-04-27T21:55:40.931Z,98736.08
2018-04-27T21:58:11.377Z,98733.98
2018-04-27T22:00:39.282Z,98737.16
2018-04-27T22:03:15.027Z,98731.45
2018-04-27T22:08:47.596Z,98732.36
2018-04-27T22:11:27.046Z,98739.59
2018-04-27T22:13:54.974Z,98743.47
2018-04-27T22:16:24.379Z,98740.39
2018-04-27T22:18:53.234Z,98740.25
2018-04-27T22:21:22.848Z,98748.49
2018-04-27T22:24:05.328Z,98745.81
2018-04-27T22:26:34.783Z,98747.73
2018-04-27T22:29:03.056Z,98755.52
2018-04-27T22:31:30.582Z,98753.90
2018-04-27T22:34:00.957Z,98754.75
2018-04-27T22:36:44.169Z,98751.70
2018-04-27T22:39:17.672Z,98760.55
2018-04-27T22:41:56.166Z,98764.73
2018-04-27T22:44:27.738Z,98766.38
2018-04-27T22:46:56.834Z,98755.67
2018-04-27T22:49:25.780Z,98772.90
2018-04-27T22:51:53.442Z,98758.84
2018-04-27T22:54:38.831Z,98762.48
2018-04-27T22:57:28.441Z,98768.64
2018-04-27T23:02:53.835Z,98780.48
2018-04-27T23:05:36.619Z,98778.71
2018-04-27T23:08:04.622Z,98791.16
2018-04-27T23:10:51.966Z,98793.55
2018-04-27T23:13:23.093Z,98793.31
2018-04-27T23:15:55.969Z,98802.79
2018-04-27T23:18:24.453Z,98799.78
2018-04-27T23:20:57.285Z,98803.70
2018-04-27T23:23:25.730Z,98810.63
2018-04-27T23:25:53.656Z,98804.60
2018-04-27T23:28:22.254Z,98800.98
2018-04-27T23:30:50.786Z,98809.75
2018-04-27T23:33:19.462Z,98814.85
2018-04-27T23:35:51.121Z,98814.27
2018-04-27T23:38:20.731Z,98819.30
2018-04-27T23:40:52.544Z,98816.38
2018-04-27T23:43:21.867Z,98819.47
2018-04-27T23:45:50.303Z,98824.22
2018-04-27T23:48:19.577Z,98821.47
2018-04-27T23:50:49.686Z,98819.84
2018-04-27T23:53:18.451Z,98818.13
2018-04-27T23:55:46.610Z,98818.82
2018-04-27T23:58:16.690Z,98823.27
